createdAt,value
2022-12-04T00:01:30.016Z,1.70
2022-12-04T00:04:00.679Z,1.70
2022-12-04T00:06:28.909Z,1.70
2022-12-04T00:08:55.732Z,1.70
2022-12-04T00:11:28.495Z,1.70
2022-12-04T00:14:02.939Z,1.70
2022-12-04T00:16:33.350Z,1.70
2022-12-04T00:19:09.481Z,1.60
2022-12-04T00:21:36.260Z,1.60
2022-12-04T00:24:03.067Z,1.60
2022-12-04T00:26:31.595Z,1.60
2022-12-04T00:29:02.215Z,1.70
2022-12-04T00:31:31.390Z,1.60
2022-12-04T00:33:58.690Z,1.60
2022-12-04T00:36:27.698Z,1.60
2022-12-04T00:38:56.407Z,1.70
2022-12-04T00:41:25.143Z,1.70
2022-12-04T00:43:52.809Z,1.70
2022-12-04T00:46:20.933Z,1.60
2022-12-04T00:48:47.778Z,1.60
2022-12-04T00:51:22.926Z,1.60
2022-12-04T00:53:51.467Z,1.60
2022-12-04T00:56:22.432Z,1.60
2022-12-04T00:58:52.259Z,1.60
2022-12-04T01:01:20.788Z,1.60
2022-12-04T01:03:49.076Z,1.60
2022-12-04T01:06:25.181Z,1.60
2022-12-04T01:08:53.471Z,1.60
2022-12-04T01:11:21.819Z,1.60
2022-12-04T01:13:48.742Z,1.50
2022-12-04T01:16:21.644Z,1.50
2022-12-04T01:18:48.489Z,1.50
2022-12-04T01:21:15.666Z,1.50
2022-12-04T01:23:42.354Z,1.50
2022-12-04T01:26:09.024Z,1.60
2022-12-04T01:28:36.898Z,1.50
2022-12-04T01:31:16.561Z,1.50
2022-12-04T01:33:52.695Z,1.50
2022-12-04T01:36:23.085Z,1.50
2022-12-04T01:38:51.440Z,1.50
2022-12-04T01:41:23.070Z,1.50
2022-12-04T01:44:13.774Z,1.70
2022-12-04T01:46:41.787Z,1.50
2022-12-04T01:49:19.644Z,1.50
2022-12-04T01:51:50.952Z,1.50
2022-12-04T01:54:30.685Z,1.50
2022-12-04T01:57:14.810Z,1.40
2022-12-04T01:59:55.438Z,1.40
2022-12-04T02:02:39.083Z,1.40
2022-12-04T02:05:09.501Z,1.40
2022-12-04T02:07:38.955Z,1.40
2022-12-04T02:10:08.721Z,1.40
2022-12-04T02:12:49.704Z,1.40
2022-12-04T02:15:48.671Z,1.40
2022-12-04T02:18:28.546Z,1.40
2022-12-04T02:21:20.614Z,1.30
2022-12-04T02:24:05.350Z,1.30
2022-12-04T02:26:53.690Z,1.30
2022-12-04T02:29:35.211Z,1.30
2022-12-04T02:32:49.621Z,1.30
2022-12-04T02:35:20.102Z,1.30
2022-12-04T02:37:52.902Z,1.30
2022-12-04T02:40:35.082Z,1.30
2022-12-04T02:43:11.349Z,1.30
2022-12-04T02:45:43.983Z,1.40
2022-12-04T02:48:14.539Z,1.30
2022-12-04T02:50:41.605Z,1.30
2022-12-04T02:53:22.507Z,1.30
2022-12-04T02:55:54.988Z,1.30
2022-12-04T02:58:46.861Z,1.30
2022-12-04T03:01:19.891Z,1.30
2022-12-04T03:04:18.827Z,1.30
2022-12-04T03:06:50.733Z,1.20
2022-12-04T03:09:55.237Z,1.20
2022-12-04T03:12:38.462Z,1.20
2022-12-04T03:15:28.338Z,1.20
2022-12-04T03:18:11.559Z,1.20
2022-12-04T03:20:40.202Z,1.20
2022-12-04T03:23:12.788Z,1.20
2022-12-04T03:25:53.907Z,1.20
2022-12-04T03:28:28.921Z,1.20
2022-12-04T03:31:04.430Z,1.20
2022-12-04T03:33:45.110Z,1.20
2022-12-04T03:36:53.638Z,1.20
2022-12-04T03:39:30.479Z,1.20
2022-12-04T03:42:04.840Z,1.20
2022-12-04T03:44:55.421Z,1.10
2022-12-04T03:47:34.380Z,1.10
2022-12-04T03:50:13.669Z,1.10
2022-12-04T03:53:18.667Z,1.10
2022-12-04T03:55:56.326Z,1.10
2022-12-04T03:58:30.767Z,1.10
2022-12-04T04:00:59.383Z,1.10
2022-12-04T04:03:41.079Z,1.10
2022-12-04T04:06:22.666Z,1.10
2022-12-04T04:08:54.132Z,1.10
2022-12-04T04:11:34.052Z,1.10
2022-12-04T04:14:22.493Z,1.10
2022-12-04T04:17:15.677Z,1.10
2022-12-04T04:20:03.281Z,1.10
2022-12-04T04:22:54.493Z,1.00
2022-12-04T04:25:27.400Z,1.10
2022-12-04T04:27:56.449Z,1.10
2022-12-04T04:30:23.729Z,1.10
2022-12-04T04:32:58.509Z,1.00
2022-12-04T04:36:07.063Z,1.00
2022-12-04T04:39:02.586Z,1.00
2022-12-04T04:41:42.308Z,1.00
2022-12-04T04:44:12.983Z,1.00
2022-12-04T04:46:46.641Z,1.00
2022-12-04T04:49:16.130Z,1.00
2022-12-04T04:51:44.303Z,1.00
2022-12-04T04:54:14.266Z,1.00
2022-12-04T04:56:43.009Z,1.00
2022-12-04T04:59:24.435Z,1.00
2022-12-04T05:01:51.194Z,1.00
2022-12-04T05:04:17.932Z,1.00
2022-12-04T05:06:44.621Z,1.00
2022-12-04T05:09:11.449Z,1.00
2022-12-04T05:11:39.115Z,0.90
2022-12-04T05:14:06.153Z,1.00
2022-12-04T05:16:33.239Z,1.00
2022-12-04T05:19:18.612Z,1.00
2022-12-04T05:21:45.312Z,1.00
2022-12-04T05:24:11.953Z,1.00
2022-12-04T05:26:38.617Z,1.00
2022-12-04T05:29:05.604Z,1.00
2022-12-04T05:31:32.300Z,0.90
2022-12-04T05:33:59.080Z,1.00
2022-12-04T05:36:25.726Z,1.00
2022-12-04T05:38:52.520Z,1.00
2022-12-04T05:41:19.155Z,1.00
2022-12-04T05:43:45.815Z,1.00
2022-12-04T05:46:12.565Z,1.00
2022-12-04T05:48:39.335Z,1.00
2022-12-04T05:51:07.879Z,1.00
2022-12-04T05:53:34.807Z,1.00
2022-12-04T05:56:03.362Z,0.90
2022-12-04T05:58:30.437Z,1.00
2022-12-04T06:00:57.336Z,0.90
2022-12-04T06:03:24.114Z,0.90
2022-12-04T06:05:50.889Z,0.90
2022-12-04T06:08:17.636Z,0.90
2022-12-04T06:10:44.333Z,0.90
2022-12-04T06:13:11.019Z,0.90
2022-12-04T06:15:39.587Z,0.90
2022-12-04T06:18:06.818Z,0.90
2022-12-04T06:20:34.740Z,0.90
2022-12-04T06:23:02.017Z,0.90
2022-12-04T06:25:28.892Z,0.90
2022-12-04T06:27:55.643Z,0.80
2022-12-04T06:30:28.454Z,0.90
2022-12-04T06:32:55.108Z,0.90
2022-12-04T06:35:21.784Z,0.90
2022-12-04T06:37:48.462Z,0.90
2022-12-04T06:40:15.173Z,0.90
2022-12-04T06:42:41.846Z,0.90
2022-12-04T06:45:09.398Z,0.90
2022-12-04T06:47:36.594Z,0.80
2022-12-04T06:50:04.541Z,0.80
2022-12-04T06:52:34.018Z,0.80
2022-12-04T06:55:00.865Z,0.80
2022-12-04T06:57:28.139Z,0.80
2022-12-04T06:59:55.138Z,0.80
2022-12-04T07:02:22.213Z,0.80
2022-12-04T07:04:48.986Z,0.90
2022-12-04T07:07:15.655Z,0.90
2022-12-04T07:09:42.390Z,0.90
2022-12-04T07:12:08.997Z,0.80
2022-12-04T07:14:35.744Z,0.90
2022-12-04T07:17:02.481Z,0.80
2022-12-04T07:19:29.292Z,0.90
2022-12-04T07:21:55.927Z,0.80
2022-12-04T07:24:22.705Z,0.80
2022-12-04T07:26:49.558Z,0.80
2022-12-04T07:29:16.532Z,0.80
2022-12-04T07:31:44.475Z,0.70
2022-12-04T07:34:11.572Z,0.80
2022-12-04T07:36:40.744Z,0.70
2022-12-04T07:39:07.625Z,0.80
2022-12-04T07:41:35.319Z,0.70
2022-12-04T07:44:02.105Z,0.80
2022-12-04T07:46:29.423Z,0.80
2022-12-04T07:48:57.418Z,0.80
2022-12-04T07:51:27.198Z,0.80
2022-12-04T07:53:54.444Z,0.80
2022-12-04T07:56:21.314Z,0.80
2022-12-04T07:58:48.163Z,0.80
2022-12-04T08:01:20.890Z,0.80
2022-12-04T08:03:50.065Z,0.80
2022-12-04T08:06:19.393Z,0.90
2022-12-04T08:08:46.795Z,0.90
2022-12-04T08:11:17.743Z,0.90
2022-12-04T08:13:45.441Z,0.90
2022-12-04T08:16:12.872Z,0.90
2022-12-04T08:18:41.718Z,1.10
2022-12-04T08:21:11.935Z,0.90
2022-12-04T08:23:40.422Z,0.90
2022-12-04T08:26:08.103Z,0.90
2022-12-04T08:28:35.626Z,0.90
2022-12-04T08:31:08.608Z,1.00
2022-12-04T08:33:35.760Z,1.00
2022-12-04T08:36:06.885Z,1.00
2022-12-04T08:38:34.207Z,1.30
2022-12-04T08:41:02.790Z,1.40
2022-12-04T08:43:30.881Z,1.60
2022-12-04T08:46:10.893Z,1.00
2022-12-04T08:48:38.119Z,1.00
2022-12-04T08:51:07.965Z,1.00
2022-12-04T08:53:37.014Z,1.10
2022-12-04T08:56:05.544Z,1.10
2022-12-04T08:58:33.252Z,1.10
2022-12-04T09:01:13.002Z,1.10
2022-12-04T09:03:40.632Z,2.00
2022-12-04T09:06:09.920Z,1.20
2022-12-04T09:08:37.290Z,2.10
2022-12-04T09:11:05.153Z,1.60
2022-12-04T09:13:32.463Z,1.20
2022-12-04T09:15:59.683Z,1.20
2022-12-04T09:18:26.537Z,1.20
2022-12-04T09:20:58.613Z,1.00
2022-12-04T09:23:26.665Z,1.20
2022-12-04T09:25:54.752Z,1.20
2022-12-04T09:28:21.693Z,2.20
2022-12-04T09:31:05.783Z,1.20
2022-12-04T09:33:33.133Z,1.40
2022-12-04T09:36:01.394Z,1.30
2022-12-04T09:38:29.190Z,1.40
2022-12-04T09:41:15.333Z,1.50
2022-12-04T09:43:45.481Z,1.40
2022-12-04T09:46:52.039Z,1.40
2022-12-04T09:49:33.125Z,1.40
2022-12-04T09:52:07.993Z,1.30
2022-12-04T09:54:41.270Z,1.30
2022-12-04T09:57:25.430Z,1.40
2022-12-04T10:02:36.709Z,1.40
2022-12-04T10:05:04.916Z,1.40
2022-12-04T10:07:45.814Z,1.40
2022-12-04T10:10:41.341Z,1.30
2022-12-04T10:13:46.013Z,1.40
2022-12-04T10:16:48.034Z,1.50
2022-12-04T10:19:23.664Z,1.50
2022-12-04T10:22:19.108Z,1.40
2022-12-04T10:24:56.260Z,1.50
2022-12-04T10:27:32.280Z,1.50
2022-12-04T10:30:14.119Z,1.50
2022-12-04T10:32:44.837Z,1.50
2022-12-04T10:35:22.230Z,1.50
2022-12-04T10:37:54.036Z,1.50
2022-12-04T10:40:32.219Z,1.50
2022-12-04T10:43:16.736Z,1.50
2022-12-04T10:45:43.777Z,1.60
2022-12-04T10:48:24.555Z,1.60
2022-12-04T10:50:51.337Z,1.60
2022-12-04T10:53:20.820Z,1.60
2022-12-04T10:55:47.553Z,1.60
2022-12-04T10:58:20.513Z,1.60
2022-12-04T11:01:03.534Z,1.60
2022-12-04T11:03:31.043Z,1.60
2022-12-04T11:06:02.200Z,1.60
2022-12-04T11:08:50.459Z,1.60
2022-12-04T11:11:27.765Z,1.70
2022-12-04T11:14:22.308Z,1.60
2022-12-04T11:17:00.034Z,1.60
2022-12-04T11:19:32.587Z,1.70
2022-12-04T11:22:30.814Z,1.70
2022-12-04T11:24:59.269Z,1.80
2022-12-04T11:27:34.244Z,1.80
2022-12-04T11:30:04.112Z,1.70
2022-12-04T11:32:46.803Z,1.80
2022-12-04T11:35:26.551Z,1.80
2022-12-04T11:38:25.754Z,1.80
2022-12-04T11:40:56.054Z,1.80
2022-12-04T11:43:27.637Z,1.80
2022-12-04T11:45:59.900Z,1.70
2022-12-04T11:48:28.760Z,1.60
2022-12-04T11:51:12.702Z,1.70
2022-12-04T11:54:00.974Z,1.80
2022-12-04T11:56:43.456Z,1.70
2022-12-04T11:59:25.539Z,1.70
2022-12-04T12:02:28.375Z,1.70
2022-12-04T12:05:04.720Z,1.70
2022-12-04T12:07:46.790Z,1.70
2022-12-04T12:10:40.073Z,1.80
2022-12-04T12:13:28.517Z,1.90
2022-12-04T12:16:22.946Z,1.80
2022-12-04T12:19:11.947Z,1.90
2022-12-04T12:22:00.769Z,1.90
2022-12-04T12:24:42.221Z,2.00
2022-12-04T12:27:20.137Z,2.00
2022-12-04T12:30:20.886Z,2.00
2022-12-04T12:32:53.915Z,1.90
2022-12-04T12:35:25.616Z,1.90
2022-12-04T12:38:02.346Z,1.90
2022-12-04T12:40:52.423Z,1.90
2022-12-04T12:43:35.315Z,2.00
2022-12-04T12:46:20.315Z,2.00
2022-12-04T12:49:03.369Z,2.00
2022-12-04T12:51:46.045Z,1.90
2022-12-04T12:54:42.180Z,1.90
2022-12-04T12:57:18.448Z,1.90
2022-12-04T12:59:53.628Z,2.00
2022-12-04T13:02:32.255Z,2.00
2022-12-04T13:05:07.075Z,1.90
2022-12-04T13:07:55.875Z,1.80
2022-12-04T13:10:35.352Z,1.80
2022-12-04T13:13:16.498Z,1.80
2022-12-04T13:15:46.576Z,1.80
2022-12-04T13:18:28.986Z,1.70
2022-12-04T13:21:02.057Z,1.80
2022-12-04T13:23:40.926Z,1.80
2022-12-04T13:26:29.851Z,1.80
2022-12-04T13:29:13.562Z,1.70
2022-12-04T13:31:57.866Z,1.70
2022-12-04T13:34:39.364Z,1.80
2022-12-04T13:37:34.763Z,1.70
2022-12-04T13:40:28.657Z,1.70
2022-12-04T13:43:33.811Z,1.70
2022-12-04T13:46:07.350Z,1.70
2022-12-04T13:48:42.498Z,1.90
2022-12-04T13:51:15.196Z,1.80
2022-12-04T13:53:43.857Z,1.80
2022-12-04T13:56:29.224Z,2.80
2022-12-04T13:59:19.939Z,1.90
2022-12-04T14:01:49.826Z,1.80
2022-12-04T14:04:53.957Z,1.80
2022-12-04T14:07:31.466Z,1.80
2022-12-04T14:10:04.563Z,1.70
2022-12-04T14:12:39.704Z,1.70
2022-12-04T14:15:20.475Z,1.70
2022-12-04T14:17:58.217Z,1.80
2022-12-04T14:20:31.416Z,1.80
2022-12-04T14:23:33.855Z,1.80
2022-12-04T14:26:03.085Z,1.80
2022-12-04T14:28:38.681Z,1.70
2022-12-04T14:31:08.521Z,1.70
2022-12-04T14:33:54.147Z,1.80
2022-12-04T14:36:26.952Z,1.80
2022-12-04T14:39:01.588Z,1.80
2022-12-04T14:41:28.369Z,1.80
2022-12-04T14:43:56.711Z,1.80
2022-12-04T14:46:43.263Z,1.80
2022-12-04T14:49:48.117Z,1.90
2022-12-04T14:52:28.224Z,1.90
2022-12-04T14:55:21.776Z,2.00
2022-12-04T14:58:22.885Z,1.90
2022-12-04T15:00:54.860Z,1.90
2022-12-04T15:03:22.775Z,1.80
2022-12-04T15:05:51.222Z,1.80
2022-12-04T15:08:20.290Z,1.80
2022-12-04T15:11:09.745Z,1.80
2022-12-04T15:13:38.860Z,2.00
2022-12-04T15:16:20.336Z,1.80
2022-12-04T15:18:54.326Z,1.80
2022-12-04T15:21:21.817Z,1.80
2022-12-04T15:23:49.659Z,1.80
2022-12-04T15:26:20.553Z,1.80
2022-12-04T15:28:54.410Z,1.80
2022-12-04T15:31:34.967Z,2.70
2022-12-04T15:34:08.014Z,1.70
2022-12-04T15:36:46.667Z,1.70
2022-12-04T15:39:18.061Z,1.70
2022-12-04T15:41:45.053Z,1.70
2022-12-04T15:44:28.772Z,1.60
2022-12-04T15:46:58.399Z,1.60
2022-12-04T15:49:29.328Z,1.70
2022-12-04T15:52:15.638Z,1.60
2022-12-04T15:54:59.379Z,1.40
2022-12-04T15:57:35.429Z,1.60
2022-12-04T16:00:05.724Z,1.60
2022-12-04T16:02:41.752Z,2.30
2022-12-04T16:05:36.960Z,1.60
2022-12-04T16:08:25.232Z,1.60
2022-12-04T16:11:06.516Z,1.80
2022-12-04T16:13:38.675Z,1.60
2022-12-04T16:16:10.549Z,1.50
2022-12-04T16:18:38.767Z,1.60
2022-12-04T16:21:06.337Z,1.60
2022-12-04T16:23:33.115Z,1.60
2022-12-04T16:25:59.810Z,1.60
2022-12-04T16:28:26.515Z,1.60
2022-12-04T16:30:53.470Z,1.60
2022-12-04T16:33:20.215Z,1.50
2022-12-04T16:35:46.902Z,1.60
2022-12-04T16:38:16.463Z,1.60
2022-12-04T16:40:45.079Z,1.60
2022-12-04T16:43:13.941Z,1.60
2022-12-04T16:45:54.419Z,2.10
2022-12-04T16:48:21.488Z,0.60
2022-12-04T16:50:48.436Z,1.40
2022-12-04T16:53:20.920Z,2.70
2022-12-04T16:55:50.394Z,1.50
2022-12-04T16:58:18.292Z,1.50
2022-12-04T17:00:50.506Z,1.50
2022-12-04T17:03:30.153Z,1.50
2022-12-04T17:05:57.523Z,1.50
2022-12-04T17:08:24.384Z,1.50
2022-12-04T17:10:51.590Z,1.50
2022-12-04T17:13:19.796Z,1.50
2022-12-04T17:15:46.817Z,1.50
2022-12-04T17:18:19.223Z,1.60
2022-12-04T17:20:47.694Z,2.00
2022-12-04T17:23:14.458Z,1.60
2022-12-04T17:25:41.377Z,1.60
2022-12-04T17:28:08.257Z,1.60
2022-12-04T17:30:36.427Z,1.60
2022-12-04T17:33:04.285Z,1.60
2022-12-04T17:35:31.105Z,1.60
2022-12-04T17:38:02.265Z,1.60
2022-12-04T17:40:32.733Z,1.60
2022-12-04T17:42:59.422Z,1.60
2022-12-04T17:45:26.453Z,1.60
2022-12-04T17:47:53.142Z,1.60
2022-12-04T17:50:20.254Z,1.70
2022-12-04T17:52:46.912Z,1.60
2022-12-04T17:55:13.881Z,1.60
2022-12-04T17:57:40.759Z,1.60
2022-12-04T18:00:08.276Z,1.60
2022-12-04T18:02:35.770Z,1.70
2022-12-04T18:05:02.502Z,1.70
2022-12-04T18:07:30.928Z,1.70
2022-12-04T18:09:58.004Z,1.60
2022-12-04T18:12:24.939Z,1.60
2022-12-04T18:14:51.626Z,1.60
2022-12-04T18:17:20.635Z,1.60
2022-12-04T18:19:47.485Z,1.70
2022-12-04T18:22:14.307Z,2.20
2022-12-04T18:24:41.051Z,2.10
2022-12-04T18:27:08.142Z,2.40
2022-12-04T18:29:34.901Z,1.70
2022-12-04T18:32:01.664Z,1.60
2022-12-04T18:34:29.081Z,1.70
2022-12-04T18:36:55.834Z,1.70
2022-12-04T18:39:24.278Z,1.70
2022-12-04T18:41:54.107Z,1.70
2022-12-04T18:44:20.953Z,1.70
2022-12-04T18:46:47.690Z,1.70
2022-12-04T18:49:14.570Z,1.70
2022-12-04T18:51:48.406Z,1.70
2022-12-04T18:54:21.732Z,1.70
2022-12-04T18:56:49.148Z,1.70
2022-12-04T19:02:26.541Z,1.60
2022-12-04T19:04:54.140Z,1.60
2022-12-04T19:07:21.636Z,1.60
2022-12-04T19:10:10.427Z,2.30
2022-12-04T19:12:35.983Z,1.80
2022-12-04T19:15:03.157Z,1.40
2022-12-04T19:17:30.486Z,1.80
2022-12-04T19:19:58.832Z,1.90
2022-12-04T19:22:26.108Z,1.80
2022-12-04T19:24:52.919Z,1.80
2022-12-04T19:27:19.866Z,2.40
2022-12-04T19:29:48.062Z,2.10
2022-12-04T19:32:15.419Z,2.10
2022-12-04T19:34:43.778Z,1.70
2022-12-04T19:37:11.479Z,1.70
2022-12-04T19:39:54.759Z,1.70
2022-12-04T19:42:43.161Z,1.40
2022-12-04T19:45:13.973Z,2.00
2022-12-04T19:47:57.573Z,1.70
2022-12-04T19:50:29.983Z,1.70
2022-12-04T19:53:04.406Z,1.70
2022-12-04T20:07:16.976Z,1.70
2022-12-04T20:09:52.916Z,2.40
2022-12-04T20:12:43.610Z,1.70
2022-12-04T20:15:20.015Z,1.50
2022-12-04T20:17:55.459Z,1.10
2022-12-04T20:27:04.102Z,1.40
2022-12-04T20:29:32.017Z,1.20
2022-12-04T20:32:03.419Z,1.90
2022-12-04T20:34:35.687Z,1.50
2022-12-04T20:37:23.682Z,1.10
2022-12-04T20:39:50.842Z,1.10
2022-12-04T20:42:17.864Z,1.50
2022-12-04T20:44:44.907Z,1.00
2022-12-04T20:47:11.769Z,1.20
2022-12-04T20:49:38.668Z,1.00
2022-12-04T20:52:05.613Z,0.80
2022-12-04T20:54:37.888Z,1.20
2022-12-04T20:57:07.985Z,2.40
2022-12-04T20:59:35.020Z,1.30
2022-12-04T21:02:01.976Z,1.10
2022-12-04T21:04:35.355Z,0.70
2022-12-04T21:07:04.775Z,1.00
2022-12-04T21:09:31.917Z,1.70
2022-12-04T21:11:59.218Z,1.00
2022-12-04T21:14:47.723Z,1.40
2022-12-04T21:17:19.034Z,1.40
2022-12-04T21:25:42.185Z,1.40
2022-12-04T21:28:10.248Z,1.70
2022-12-04T21:30:42.856Z,1.40
2022-12-04T21:33:10.226Z,1.30
2022-12-04T21:35:40.896Z,1.30
2022-12-04T21:38:08.198Z,1.20
2022-12-04T21:40:42.011Z,1.20
2022-12-04T21:43:09.521Z,1.60
2022-12-04T21:45:36.940Z,1.90
2022-12-04T21:48:03.950Z,1.60
2022-12-04T21:50:31.371Z,1.70
2022-12-04T21:52:59.570Z,1.60
2022-12-04T21:55:32.830Z,1.10
2022-12-04T21:58:19.304Z,1.20
2022-12-04T22:02:06.762Z,0.90
